sensor_id;sensor_type;location;lat;lon;timestamp;temperature;humidity
1644;DHT22;46825;51.99869940;8.49421771;2023-03-14T00:00:52;11.10;99.90
1644;DHT22;46825;51.99869940;8.49421771;2023-03-14T00:01:52;11.00;99.90
1644;DHT22;46825;51.99869940;8.49421771;2023-03-14T00:02:53;11.00;99.90
1644;DHT22;46825;51.99869940;8.49421771;2023-03-14T00:03:54;11.00;99.90
1644;DHT22;46825;51.99869940;8.49421771;2023-03-14T00:04:55;11.00;99.90
1644;DHT22;46825;51.99869940;8.49421771;2023-03-14T00:05:56;11.00;99.90
1644;DHT22;46825;51.99869940;8.49421771;2023-03-14T00:06:57;11.00;99.90
1644;DHT22;46825;51.99869940;8.49421771;2023-03-14T00:07:57;11.00;99.90
1644;DHT22;46825;51.99869940;8.49421771;2023-03-14T00:08:58;11.00;99.90
1644;DHT22;46825;51.99869940;8.49421771;2023-03-14T00:09:59;11.10;99.90
1644;DHT22;46825;51.99869940;8.49421771;2023-03-14T00:11:10;11.10;99.90
1644;DHT22;46825;51.99869940;8.49421771;2023-03-14T00:12:11;11.10;99.90
1644;DHT22;46825;51.99869940;8.49421771;2023-03-14T00:13:11;11.50;99.90
1644;DHT22;46825;51.99869940;8.49421771;2023-03-14T00:14:12;11.20;99.90
1644;DHT22;46825;51.99869940;8.49421771;2023-03-14T00:15:13;11.10;99.90
1644;DHT22;46825;51.99869940;8.49421771;2023-03-14T00:16:13;11.20;99.90
1644;DHT22;46825;51.99869940;8.49421771;2023-03-14T00:17:14;11.20;99.90
1644;DHT22;46825;51.99869940;8.49421771;2023-03-14T00:18:15;11.20;99.90
1644;DHT22;46825;51.99869940;8.49421771;2023-03-14T00:19:15;11.10;99.90
1644;DHT22;46825;51.99869940;8.49421771;2023-03-14T00:20:16;11.70;99.90
1644;DHT22;46825;51.99869940;8.49421771;2023-03-14T00:21:19;11.20;99.90
1644;DHT22;46825;51.99869940;8.49421771;2023-03-14T00:22:20;11.30;99.90
1644;DHT22;46825;51.99869940;8.49421771;2023-03-14T00:23:20;11.10;99.90
1644;DHT22;46825;51.99869940;8.49421771;2023-03-14T00:24:21;11.10;99.90
1644;DHT22;46825;51.99869940;8.49421771;2023-03-14T00:25:21;11.00;99.90
1644;DHT22;46825;51.99869940;8.49421771;2023-03-14T00:26:22;11.10;99.90
1644;DHT22;46825;51.99869940;8.49421771;2023-03-14T00:27:23;11.00;99.90
1644;DHT22;46825;51.99869940;8.49421771;2023-03-14T00:28:23;11.00;99.90
1644;DHT22;46825;51.99869940;8.49421771;2023-03-14T00:29:24;11.00;99.90
1644;DHT22;46825;51.99869940;8.49421771;2023-03-14T00:30:24;11.00;99.90
1644;DHT22;46825;51.99869940;8.49421771;2023-03-14T00:31:25;11.20;99.90
1644;DHT22;46825;51.99869940;8.49421771;2023-03-14T00:32:26;12.50;99.90
1644;DHT22;46825;51.99869940;8.49421771;2023-03-14T00:33:26;11.10;99.90
1644;DHT22;46825;51.99869940;8.49421771;2023-03-14T00:34:31;10.90;99.90
1644;DHT22;46825;51.99869940;8.49421771;2023-03-14T00:35:32;10.80;99.90
1644;DHT22;46825;51.99869940;8.49421771;2023-03-14T00:36:32;10.80;99.90
1644;DHT22;46825;51.99869940;8.49421771;2023-03-14T00:37:33;10.80;99.90
1644;DHT22;46825;51.99869940;8.49421771;2023-03-14T00:38:34;10.80;99.90
1644;DHT22;46825;51.99869940;8.49421771;2023-03-14T00:39:35;10.70;99.90
1644;DHT22;46825;51.99869940;8.49421771;2023-03-14T00:40:39;10.80;99.90
1644;DHT22;46825;51.99869940;8.49421771;2023-03-14T00:41:40;10.80;99.90
1644;DHT22;46825;51.99869940;8.49421771;2023-03-14T00:42:40;10.80;99.90
1644;DHT22;46825;51.99869940;8.49421771;2023-03-14T00:43:41;10.80;99.90
1644;DHT22;46825;51.99869940;8.49421771;2023-03-14T00:44:41;10.90;99.90
1644;DHT22;46825;51.99869940;8.49421771;2023-03-14T00:45:42;10.90;99.90
1644;DHT22;46825;51.99869940;8.49421771;2023-03-14T00:46:43;10.90;99.90
1644;DHT22;46825;51.99869940;8.49421771;2023-03-14T00:47:43;10.90;99.90
1644;DHT22;46825;51.99869940;8.49421771;2023-03-14T00:48:46;11.00;99.90
1644;DHT22;46825;51.99869940;8.49421771;2023-03-14T00:49:46;11.00;99.90
1644;DHT22;46825;51.99869940;8.49421771;2023-03-14T00:50:48;11.00;99.90
1644;DHT22;46825;51.99869940;8.49421771;2023-03-14T00:51:48;11.00;99.90
1644;DHT22;46825;51.99869940;8.49421771;2023-03-14T00:52:49;11.00;99.90
1644;DHT22;46825;51.99869940;8.49421771;2023-03-14T00:53:50;11.00;99.90
1644;DHT22;46825;51.99869940;8.49421771;2023-03-14T00:54:50;11.00;99.90
1644;DHT22;46825;51.99869940;8.49421771;2023-03-14T00:55:51;11.10;99.90
1644;DHT22;46825;51.99869940;8.49421771;2023-03-14T00:56:52;11.00;99.90
1644;DHT22;46825;51.99869940;8.49421771;2023-03-14T00:57:52;11.00;99.90
1644;DHT22;46825;51.99869940;8.49421771;2023-03-14T00:58:54;11.00;99.90
1644;DHT22;46825;51.99869940;8.49421771;2023-03-14T00:59:56;10.90;99.90
1644;DHT22;46825;51.99869940;8.49421771;2023-03-14T01:00:56;10.90;99.90
1644;DHT22;46825;51.99869940;8.49421771;2023-03-14T01:01:57;10.90;99.90
1644;DHT22;46825;51.99869940;8.49421771;2023-03-14T01:02:58;11.00;99.90
1644;DHT22;46825;51.99869940;8.49421771;2023-03-14T01:03:58;11.00;99.90
1644;DHT22;46825;51.99869940;8.49421771;2023-03-14T01:04:59;11.00;99.90
1644;DHT22;46825;51.99869940;8.49421771;2023-03-14T01:06:15;11.00;99.90
1644;DHT22;46825;51.99869940;8.49421771;2023-03-14T01:07:16;11.00;99.90
1644;DHT22;46825;51.99869940;8.49421771;2023-03-14T01:08:17;11.00;99.90
1644;DHT22;46825;51.99869940;8.49421771;2023-03-14T01:09:17;11.00;99.90
1644;DHT22;46825;51.99869940;8.49421771;2023-03-14T01:10:18;11.00;99.90
1644;DHT22;46825;51.99869940;8.49421771;2023-03-14T01:11:28;11.00;99.90
1644;DHT22;46825;51.99869940;8.49421771;2023-03-14T01:12:29;11.00;99.90
1644;DHT22;46825;51.99869940;8.49421771;2023-03-14T01:13:30;11.00;99.90
1644;DHT22;46825;51.99869940;8.49421771;2023-03-14T01:14:30;11.00;99.90
1644;DHT22;46825;51.99869940;8.49421771;2023-03-14T01:15:33;11.00;99.90
1644;DHT22;46825;51.99869940;8.49421771;2023-03-14T01:16:34;11.10;99.90
1644;DHT22;46825;51.99869940;8.49421771;2023-03-14T01:17:35;11.10;99.90
1644;DHT22;46825;51.99869940;8.49421771;2023-03-14T01:18:39;11.10;99.90
1644;DHT22;46825;51.99869940;8.49421771;2023-03-14T01:19:40;11.10;99.90
1644;DHT22;46825;51.99869940;8.49421771;2023-03-14T01:20:40;11.10;99.90
1644;DHT22;46825;51.99869940;8.49421771;2023-03-14T01:21:41;11.00;99.90
1644;DHT22;46825;51.99869940;8.49421771;2023-03-14T01:22:42;11.10;99.90
1644;DHT22;46825;51.99869940;8.49421771;2023-03-14T01:23:44;11.00;99.90
1644;DHT22;46825;51.99869940;8.49421771;2023-03-14T01:24:45;11.10;99.90
1644;DHT22;46825;51.99869940;8.49421771;2023-03-14T01:25:45;11.10;99.90
1644;DHT22;46825;51.99869940;8.49421771;2023-03-14T01:26:46;11.10;99.90
1644;DHT22;46825;51.99869940;8.49421771;2023-03-14T01:27:47;11.20;99.90
1644;DHT22;46825;51.99869940;8.49421771;2023-03-14T01:28:48;11.10;99.90
1644;DHT22;46825;51.99869940;8.49421771;2023-03-14T01:29:49;11.80;99.90
1644;DHT22;46825;51.99869940;8.49421771;2023-03-14T01:30:49;11.10;99.90
1644;DHT22;46825;51.99869940;8.49421771;2023-03-14T01:31:50;11.20;99.90
1644;DHT22;46825;51.99869940;8.49421771;2023-03-14T01:32:50;11.20;99.90
1644;DHT22;46825;51.99869940;8.49421771;2023-03-14T01:33:51;11.10;99.90
1644;DHT22;46825;51.99869940;8.49421771;2023-03-14T01:34:52;11.10;99.90
1644;DHT22;46825;51.99869940;8.49421771;2023-03-14T01:35:52;11.20;99.90
1644;DHT22;46825;51.99869940;8.49421771;2023-03-14T01:36:53;11.10;99.90
1644;DHT22;46825;51.99869940;8.49421771;2023-03-14T01:37:54;11.10;99.90
1644;DHT22;46825;51.99869940;8.49421771;2023-03-14T01:38:54;11.20;99.90
1644;DHT22;46825;51.99869940;8.49421771;2023-03-14T01:39:55;11.10;99.90
1644;DHT22;46825;51.99869940;8.49421771;2023-03-14T01:40:56;11.10;99.90
1644;DHT22;46825;51.99869940;8.49421771;2023-03-14T01:41:57;11.10;99.90
1644;DHT22;46825;51.99869940;8.49421771;2023-03-14T01:43:05;11.10;99.90
1644;DHT22;46825;51.99869940;8.49421771;2023-03-14T01:44:09;11.20;99.90
1644;DHT22;46825;51.99869940;8.49421771;2023-03-14T01:46:48;11.20;99.90
1644;DHT22;46825;51.99869940;8.49421771;2023-03-14T01:47:49;11.10;99.90
1644;DHT22;46825;51.99869940;8.49421771;2023-03-14T01:48:54;11.10;99.90
1644;DHT22;46825;51.99869940;8.49421771;2023-03-14T01:49:59;11.10;99.90
1644;DHT22;46825;51.99869940;8.49421771;2023-03-14T01:51:02;11.10;99.90
1644;DHT22;46825;51.99869940;8.49421771;2023-03-14T01:53:39;11.10;99.90
1644;DHT22;46825;51.99869940;8.49421771;2023-03-14T01:54:46;11.10;99.90
1644;DHT22;46825;51.99869940;8.49421771;2023-03-14T01:55:50;11.20;99.90
1644;DHT22;46825;51.99869940;8.49421771;2023-03-14T01:56:57;11.10;99.90
1644;DHT22;46825;51.99869940;8.49421771;2023-03-14T01:58:03;11.10;99.90
1644;DHT22;46825;51.99869940;8.49421771;2023-03-14T01:59:06;11.10;99.90
1644;DHT22;46825;51.99869940;8.49421771;2023-03-14T02:00:13;13.10;99.90
1644;DHT22;46825;51.99869940;8.49421771;2023-03-14T02:01:17;11.10;99.90
1644;DHT22;46825;51.99869940;8.49421771;2023-03-14T02:02:19;11.20;99.90
1644;DHT22;46825;51.99869940;8.49421771;2023-03-14T02:03:21;11.10;99.90
1644;DHT22;46825;51.99869940;8.49421771;2023-03-14T02:04:23;11.10;99.90
1644;DHT22;46825;51.99869940;8.49421771;2023-03-14T02:05:28;11.10;99.90
1644;DHT22;46825;51.99869940;8.49421771;2023-03-14T02:06:58;11.10;99.90
1644;DHT22;46825;51.99869940;8.49421771;2023-03-14T02:08:02;11.10;99.90
1644;DHT22;46825;51.99869940;8.49421771;2023-03-14T02:09:03;11.10;99.90
1644;DHT22;46825;51.99869940;8.49421771;2023-03-14T02:10:05;11.30;99.90
1644;DHT22;46825;51.99869940;8.49421771;2023-03-14T02:11:06;11.10;99.90
1644;DHT22;46825;51.99869940;8.49421771;2023-03-14T02:12:09;11.20;99.90
1644;DHT22;46825;51.99869940;8.49421771;2023-03-14T02:13:12;11.20;99.90
1644;DHT22;46825;51.99869940;8.49421771;2023-03-14T02:14:21;11.20;99.90
1644;DHT22;46825;51.99869940;8.49421771;2023-03-14T02:15:25;11.30;99.90
1644;DHT22;46825;51.99869940;8.49421771;2023-03-14T02:16:26;11.20;99.90
1644;DHT22;46825;51.99869940;8.49421771;2023-03-14T02:17:26;11.10;99.90
1644;DHT22;46825;51.99869940;8.49421771;2023-03-14T02:18:27;11.20;99.90
1644;DHT22;46825;51.99869940;8.49421771;2023-03-14T02:21:06;11.20;99.90
1644;DHT22;46825;51.99869940;8.49421771;2023-03-14T02:22:11;11.20;99.90
1644;DHT22;46825;51.99869940;8.49421771;2023-03-14T02:23:16;11.20;99.90
1644;DHT22;46825;51.99869940;8.49421771;2023-03-14T02:25:54;11.20;99.90
1644;DHT22;46825;51.99869940;8.49421771;2023-03-14T02:27:10;11.20;99.90
1644;DHT22;46825;51.99869940;8.49421771;2023-03-14T02:28:11;11.10;99.90
1644;DHT22;46825;51.99869940;8.49421771;2023-03-14T02:29:12;11.00;99.90
1644;DHT22;46825;51.99869940;8.49421771;2023-03-14T02:30:19;10.80;99.90
1644;DHT22;46825;51.99869940;8.49421771;2023-03-14T02:31:22;10.70;99.90
1644;DHT22;46825;51.99869940;8.49421771;2023-03-14T02:32:24;10.50;99.90
1644;DHT22;46825;51.99869940;8.49421771;2023-03-14T02:33:25;10.40;99.90
1644;DHT22;46825;51.99869940;8.49421771;2023-03-14T02:34:26;10.30;99.90
1644;DHT22;46825;51.99869940;8.49421771;2023-03-14T02:35:30;10.20;99.90
1644;DHT22;46825;51.99869940;8.49421771;2023-03-14T02:36:32;10.10;99.90
1644;DHT22;46825;51.99869940;8.49421771;2023-03-14T02:37:38;10.00;99.90
1644;DHT22;46825;51.99869940;8.49421771;2023-03-14T02:38:52;9.90;99.90
1644;DHT22;46825;51.99869940;8.49421771;2023-03-14T02:39:54;9.90;99.90
1644;DHT22;46825;51.99869940;8.49421771;2023-03-14T02:40:54;9.80;99.90
1644;DHT22;46825;51.99869940;8.49421771;2023-03-14T02:41:55;9.70;99.90
1644;DHT22;46825;51.99869940;8.49421771;2023-03-14T02:42:56;9.50;99.90
1644;DHT22;46825;51.99869940;8.49421771;2023-03-14T02:43:56;9.60;99.90
1644;DHT22;46825;51.99869940;8.49421771;2023-03-14T02:46:21;9.60;99.90
1644;DHT22;46825;51.99869940;8.49421771;2023-03-14T02:47:27;9.70;99.90
1644;DHT22;46825;51.99869940;8.49421771;2023-03-14T02:48:57;9.50;99.90
1644;DHT22;46825;51.99869940;8.49421771;2023-03-14T02:50:08;9.50;99.90
1644;DHT22;46825;51.99869940;8.49421771;2023-03-14T02:51:10;9.40;99.90
1644;DHT22;46825;51.99869940;8.49421771;2023-03-14T02:52:10;11.60;99.90
1644;DHT22;46825;51.99869940;8.49421771;2023-03-14T02:53:13;9.40;99.90
1644;DHT22;46825;51.99869940;8.49421771;2023-03-14T02:54:16;9.40;99.90
1644;DHT22;46825;51.99869940;8.49421771;2023-03-14T02:55:21;9.40;99.90
1644;DHT22;46825;51.99869940;8.49421771;2023-03-14T02:56:21;9.40;99.90
1644;DHT22;46825;51.99869940;8.49421771;2023-03-14T02:57:22;9.40;99.90
1644;DHT22;46825;51.99869940;8.49421771;2023-03-14T02:58:23;9.40;99.90
1644;DHT22;46825;51.99869940;8.49421771;2023-03-14T02:59:24;9.40;99.90
1644;DHT22;46825;51.99869940;8.49421771;2023-03-14T03:00:24;9.40;99.90
1644;DHT22;46825;51.99869940;8.49421771;2023-03-14T03:01:25;9.40;99.90
1644;DHT22;46825;51.99869940;8.49421771;2023-03-14T03:02:27;9.40;99.90
1644;DHT22;46825;51.99869940;8.49421771;2023-03-14T03:03:27;9.50;99.90
1644;DHT22;46825;51.99869940;8.49421771;2023-03-14T03:04:28;9.40;99.90
1644;DHT22;46825;51.99869940;8.49421771;2023-03-14T03:05:28;9.40;99.90
1644;DHT22;46825;51.99869940;8.49421771;2023-03-14T03:06:29;9.50;99.90
1644;DHT22;46825;51.99869940;8.49421771;2023-03-14T03:07:30;9.40;99.90
1644;DHT22;46825;51.99869940;8.49421771;2023-03-14T03:08:31;9.40;99.90
1644;DHT22;46825;51.99869940;8.49421771;2023-03-14T03:09:32;9.30;99.90
1644;DHT22;46825;51.99869940;8.49421771;2023-03-14T03:10:32;9.30;99.90
1644;DHT22;46825;51.99869940;8.49421771;2023-03-14T03:11:33;9.40;99.90
1644;DHT22;46825;51.99869940;8.49421771;2023-03-14T03:12:33;9.20;99.90
1644;DHT22;46825;51.99869940;8.49421771;2023-03-14T03:13:34;9.30;99.90
1644;DHT22;46825;51.99869940;8.49421771;2023-03-14T03:14:35;9.20;99.90
1644;DHT22;46825;51.99869940;8.49421771;2023-03-14T03:15:36;9.40;99.90
1644;DHT22;46825;51.99869940;8.49421771;2023-03-14T03:16:36;9.10;99.90
1644;DHT22;46825;51.99869940;8.49421771;2023-03-14T03:17:37;9.20;99.90
1644;DHT22;46825;51.99869940;8.49421771;2023-03-14T03:18:38;9.30;99.90
1644;DHT22;46825;51.99869940;8.49421771;2023-03-14T03:19:38;9.30;99.90
1644;DHT22;46825;51.99869940;8.49421771;2023-03-14T03:20:39;9.20;99.90
1644;DHT22;46825;51.99869940;8.49421771;2023-03-14T03:21:39;9.20;99.90
1644;DHT22;46825;51.99869940;8.49421771;2023-03-14T03:22:40;9.10;99.90
1644;DHT22;46825;51.99869940;8.49421771;2023-03-14T03:23:41;9.20;99.90
1644;DHT22;46825;51.99869940;8.49421771;2023-03-14T03:24:41;9.20;99.90
1644;DHT22;46825;51.99869940;8.49421771;2023-03-14T03:25:42;9.20;99.90
1644;DHT22;46825;51.99869940;8.49421771;2023-03-14T03:26:47;10.10;99.90
1644;DHT22;46825;51.99869940;8.49421771;2023-03-14T03:27:48;9.30;99.90
1644;DHT22;46825;51.99869940;8.49421771;2023-03-14T03:28:50;9.20;99.90
1644;DHT22;46825;51.99869940;8.49421771;2023-03-14T03:29:52;9.20;99.90
1644;DHT22;46825;51.99869940;8.49421771;2023-03-14T03:30:52;9.30;99.90
1644;DHT22;46825;51.99869940;8.49421771;2023-03-14T03:31:53;9.20;99.90
1644;DHT22;46825;51.99869940;8.49421771;2023-03-14T03:32:53;9.20;99.90
1644;DHT22;46825;51.99869940;8.49421771;2023-03-14T03:33:54;9.20;99.90
1644;DHT22;46825;51.99869940;8.49421771;2023-03-14T03:34:54;9.20;99.90
1644;DHT22;46825;51.99869940;8.49421771;2023-03-14T03:35:55;9.20;99.90
1644;DHT22;46825;51.99869940;8.49421771;2023-03-14T03:36:56;9.10;99.90
1644;DHT22;46825;51.99869940;8.49421771;2023-03-14T03:37:57;9.10;99.90
1644;DHT22;46825;51.99869940;8.49421771;2023-03-14T03:38:58;9.10;99.90
1644;DHT22;46825;51.99869940;8.49421771;2023-03-14T03:39:58;9.10;99.90
1644;DHT22;46825;51.99869940;8.49421771;2023-03-14T03:41:02;9.10;99.90
1644;DHT22;46825;51.99869940;8.49421771;2023-03-14T03:42:03;9.30;99.90
1644;DHT22;46825;51.99869940;8.49421771;2023-03-14T03:43:04;9.10;99.90
1644;DHT22;46825;51.99869940;8.49421771;2023-03-14T03:44:05;9.20;99.90
1644;DHT22;46825;51.99869940;8.49421771;2023-03-14T03:45:06;8.70;99.90
1644;DHT22;46825;51.99869940;8.49421771;2023-03-14T03:46:07;9.20;99.90
1644;DHT22;46825;51.99869940;8.49421771;2023-03-14T03:47:08;9.20;99.90
1644;DHT22;46825;51.99869940;8.49421771;2023-03-14T03:48:09;9.20;99.90
1644;DHT22;46825;51.99869940;8.49421771;2023-03-14T03:49:09;9.20;99.90
1644;DHT22;46825;51.99869940;8.49421771;2023-03-14T03:50:10;9.20;99.90
1644;DHT22;46825;51.99869940;8.49421771;2023-03-14T03:51:15;9.20;99.90
1644;DHT22;46825;51.99869940;8.49421771;2023-03-14T03:52:15;9.20;99.90
1644;DHT22;46825;51.99869940;8.49421771;2023-03-14T03:53:16;9.20;99.90
1644;DHT22;46825;51.99869940;8.49421771;2023-03-14T03:54:16;9.20;99.90
1644;DHT22;46825;51.99869940;8.49421771;2023-03-14T03:55:17;9.20;99.90
1644;DHT22;46825;51.99869940;8.49421771;2023-03-14T03:56:18;9.20;99.90
1644;DHT22;46825;51.99869940;8.49421771;2023-03-14T03:57:18;9.20;99.90
1644;DHT22;46825;51.99869940;8.49421771;2023-03-14T03:58:19;9.10;99.90
1644;DHT22;46825;51.99869940;8.49421771;2023-03-14T03:59:20;9.10;99.90
1644;DHT22;46825;51.99869940;8.49421771;2023-03-14T04:00:20;9.10;99.90
1644;DHT22;46825;51.99869940;8.49421771;2023-03-14T04:01:21;9.10;99.90
1644;DHT22;46825;51.99869940;8.49421771;2023-03-14T04:02:22;9.10;99.90
1644;DHT22;46825;51.99869940;8.49421771;2023-03-14T04:03:22;9.10;99.90
1644;DHT22;46825;51.99869940;8.49421771;2023-03-14T04:04:23;9.20;99.90
1644;DHT22;46825;51.99869940;8.49421771;2023-03-14T04:05:24;9.20;99.90
1644;DHT22;46825;51.99869940;8.49421771;2023-03-14T04:06:24;9.10;99.90
1644;DHT22;46825;51.99869940;8.49421771;2023-03-14T04:07:25;9.10;99.90
1644;DHT22;46825;51.99869940;8.49421771;2023-03-14T04:08:26;9.10;99.90
1644;DHT22;46825;51.99869940;8.49421771;2023-03-14T04:09:26;9.10;99.90
1644;DHT22;46825;51.99869940;8.49421771;2023-03-14T04:10:27;9.30;99.90
1644;DHT22;46825;51.99869940;8.49421771;2023-03-14T04:11:27;9.10;99.90
1644;DHT22;46825;51.99869940;8.49421771;2023-03-14T04:12:28;9.10;99.90
1644;DHT22;46825;51.99869940;8.49421771;2023-03-14T04:13:29;9.10;99.90
1644;DHT22;46825;51.99869940;8.49421771;2023-03-14T04:14:30;9.20;99.90
1644;DHT22;46825;51.99869940;8.49421771;2023-03-14T04:15:30;9.10;99.90
1644;DHT22;46825;51.99869940;8.49421771;2023-03-14T04:16:31;9.10;99.90
1644;DHT22;46825;51.99869940;8.49421771;2023-03-14T04:17:32;9.10;99.90
1644;DHT22;46825;51.99869940;8.49421771;2023-03-14T04:18:32;9.10;99.90
1644;DHT22;46825;51.99869940;8.49421771;2023-03-14T04:19:33;9.10;99.90
1644;DHT22;46825;51.99869940;8.49421771;2023-03-14T04:20:34;9.10;99.90
1644;DHT22;46825;51.99869940;8.49421771;2023-03-14T04:21:35;9.10;99.90
1644;DHT22;46825;51.99869940;8.49421771;2023-03-14T04:22:37;9.10;99.90
1644;DHT22;46825;51.99869940;8.49421771;2023-03-14T04:23:38;9.10;99.90
1644;DHT22;46825;51.99869940;8.49421771;2023-03-14T04:24:38;9.10;99.90
1644;DHT22;46825;51.99869940;8.49421771;2023-03-14T04:25:39;9.10;99.90
1644;DHT22;46825;51.99869940;8.49421771;2023-03-14T04:26:39;9.10;99.90
1644;DHT22;46825;51.99869940;8.49421771;2023-03-14T04:27:40;9.10;99.90
1644;DHT22;46825;51.99869940;8.49421771;2023-03-14T04:28:40;9.00;99.90
1644;DHT22;46825;51.99869940;8.49421771;2023-03-14T04:29:44;9.10;99.90
1644;DHT22;46825;51.99869940;8.49421771;2023-03-14T04:30:45;9.10;99.90
1644;DHT22;46825;51.99869940;8.49421771;2023-03-14T04:31:45;9.00;99.90
1644;DHT22;46825;51.99869940;8.49421771;2023-03-14T04:32:46;9.10;99.90
1644;DHT22;46825;51.99869940;8.49421771;2023-03-14T04:33:47;9.00;99.90
1644;DHT22;46825;51.99869940;8.49421771;2023-03-14T04:34:47;9.00;99.90
1644;DHT22;46825;51.99869940;8.49421771;2023-03-14T04:35:48;9.20;99.90
1644;DHT22;46825;51.99869940;8.49421771;2023-03-14T04:36:50;9.00;99.90
1644;DHT22;46825;51.99869940;8.49421771;2023-03-14T04:37:51;9.30;99.90
1644;DHT22;46825;51.99869940;8.49421771;2023-03-14T04:38:52;9.10;99.90
1644;DHT22;46825;51.99869940;8.49421771;2023-03-14T04:39:52;9.00;99.90
1644;DHT22;46825;51.99869940;8.49421771;2023-03-14T04:40:53;9.00;99.90
1644;DHT22;46825;51.99869940;8.49421771;2023-03-14T04:41:53;9.00;99.90
1644;DHT22;46825;51.99869940;8.49421771;2023-03-14T04:42:54;9.00;99.90
1644;DHT22;46825;51.99869940;8.49421771;2023-03-14T04:43:56;9.00;99.90
1644;DHT22;46825;51.99869940;8.49421771;2023-03-14T04:44:56;9.00;99.90
1644;DHT22;46825;51.99869940;8.49421771;2023-03-14T04:45:57;9.00;99.90
1644;DHT22;46825;51.99869940;8.49421771;2023-03-14T04:46:58;9.00;99.90
1644;DHT22;46825;51.99869940;8.49421771;2023-03-14T04:47:59;9.00;99.90
1644;DHT22;46825;51.99869940;8.49421771;2023-03-14T04:48:59;9.00;99.90
1644;DHT22;46825;51.99869940;8.49421771;2023-03-14T04:50:00;9.00;99.90
1644;DHT22;46825;51.99869940;8.49421771;2023-03-14T04:51:01;8.90;99.90
1644;DHT22;46825;51.99869940;8.49421771;2023-03-14T04:52:01;8.90;99.90
1644;DHT22;46825;51.99869940;8.49421771;2023-03-14T04:53:02;8.90;99.90
1644;DHT22;46825;51.99869940;8.49421771;2023-03-14T04:54:02;11.10;99.90
1644;DHT22;46825;51.99869940;8.49421771;2023-03-14T04:55:03;8.90;99.90
1644;DHT22;46825;51.99869940;8.49421771;2023-03-14T04:56:04;8.80;99.90
1644;DHT22;46825;51.99869940;8.49421771;2023-03-14T04:57:05;8.80;99.90
1644;DHT22;46825;51.99869940;8.49421771;2023-03-14T04:58:06;8.60;99.90
1644;DHT22;46825;51.99869940;8.49421771;2023-03-14T04:59:07;9.10;99.90
1644;DHT22;46825;51.99869940;8.49421771;2023-03-14T05:00:09;8.80;99.90
1644;DHT22;46825;51.99869940;8.49421771;2023-03-14T05:01:10;8.80;99.90
1644;DHT22;46825;51.99869940;8.49421771;2023-03-14T05:02:10;8.80;99.90
1644;DHT22;46825;51.99869940;8.49421771;2023-03-14T05:03:11;8.90;99.90
1644;DHT22;46825;51.99869940;8.49421771;2023-03-14T05:04:12;8.90;99.90
1644;DHT22;46825;51.99869940;8.49421771;2023-03-14T05:05:12;9.70;99.90
1644;DHT22;46825;51.99869940;8.49421771;2023-03-14T05:06:13;8.90;99.90
1644;DHT22;46825;51.99869940;8.49421771;2023-03-14T05:07:13;8.90;99.90
1644;DHT22;46825;51.99869940;8.49421771;2023-03-14T05:08:14;8.90;99.90
1644;DHT22;46825;51.99869940;8.49421771;2023-03-14T05:09:14;8.90;99.90
1644;DHT22;46825;51.99869940;8.49421771;2023-03-14T05:10:16;8.90;99.90
1644;DHT22;46825;51.99869940;8.49421771;2023-03-14T05:11:16;9.00;99.90
1644;DHT22;46825;51.99869940;8.49421771;2023-03-14T05:12:17;9.00;99.90
1644;DHT22;46825;51.99869940;8.49421771;2023-03-14T05:13:17;9.10;99.90
1644;DHT22;46825;51.99869940;8.49421771;2023-03-14T05:14:18;9.00;99.90
1644;DHT22;46825;51.99869940;8.49421771;2023-03-14T05:15:18;9.10;99.90
1644;DHT22;46825;51.99869940;8.49421771;2023-03-14T05:16:19;9.00;99.90
1644;DHT22;46825;51.99869940;8.49421771;2023-03-14T05:17:20;9.00;99.90
1644;DHT22;46825;51.99869940;8.49421771;2023-03-14T05:18:20;9.10;99.90
1644;DHT22;46825;51.99869940;8.49421771;2023-03-14T05:19:21;9.00;99.90
1644;DHT22;46825;51.99869940;8.49421771;2023-03-14T05:20:22;9.10;99.90
1644;DHT22;46825;51.99869940;8.49421771;2023-03-14T05:21:22;9.10;99.90
1644;DHT22;46825;51.99869940;8.49421771;2023-03-14T05:22:23;9.10;99.90
1644;DHT22;46825;51.99869940;8.49421771;2023-03-14T05:23:23;9.10;99.90
1644;DHT22;46825;51.99869940;8.49421771;2023-03-14T05:24:24;9.10;99.90
1644;DHT22;46825;51.99869940;8.49421771;2023-03-14T05:25:25;9.10;99.90
1644;DHT22;46825;51.99869940;8.49421771;2023-03-14T05:26:25;9.10;99.90
1644;DHT22;46825;51.99869940;8.49421771;2023-03-14T05:27:26;10.60;99.90
1644;DHT22;46825;51.99869940;8.49421771;2023-03-14T05:28:27;9.20;99.90
1644;DHT22;46825;51.99869940;8.49421771;2023-03-14T05:29:27;9.10;99.90
1644;DHT22;46825;51.99869940;8.49421771;2023-03-14T05:30:28;9.20;99.90
1644;DHT22;46825;51.99869940;8.49421771;2023-03-14T05:31:28;9.20;99.90
1644;DHT22;46825;51.99869940;8.49421771;2023-03-14T05:32:29;9.20;99.90
1644;DHT22;46825;51.99869940;8.49421771;2023-03-14T05:33:30;9.20;99.90
1644;DHT22;46825;51.99869940;8.49421771;2023-03-14T05:34:30;9.20;99.90
1644;DHT22;46825;51.99869940;8.49421771;2023-03-14T05:35:31;9.20;99.90
1644;DHT22;46825;51.99869940;8.49421771;2023-03-14T05:36:32;9.20;99.90
1644;DHT22;46825;51.99869940;8.49421771;2023-03-14T05:37:32;9.10;99.90
1644;DHT22;46825;51.99869940;8.49421771;2023-03-14T05:38:33;9.20;99.90
1644;DHT22;46825;51.99869940;8.49421771;2023-03-14T05:39:33;9.20;99.90
1644;DHT22;46825;51.99869940;8.49421771;2023-03-14T05:40:34;9.20;99.90
1644;DHT22;46825;51.99869940;8.49421771;2023-03-14T05:41:35;9.20;99.90
1644;DHT22;46825;51.99869940;8.49421771;2023-03-14T05:42:36;9.20;99.90
1644;DHT22;46825;51.99869940;8.49421771;2023-03-14T05:43:36;9.20;99.90
1644;DHT22;46825;51.99869940;8.49421771;2023-03-14T05:44:37;9.20;99.90
1644;DHT22;46825;51.99869940;8.49421771;2023-03-14T05:45:37;9.20;99.90
1644;DHT22;46825;51.99869940;8.49421771;2023-03-14T05:46:38;9.30;99.90
1644;DHT22;46825;51.99869940;8.49421771;2023-03-14T05:47:39;9.30;99.90
1644;DHT22;46825;51.99869940;8.49421771;2023-03-14T05:48:39;9.20;99.90
1644;DHT22;46825;51.99869940;8.49421771;2023-03-14T05:49:40;9.20;99.90
1644;DHT22;46825;51.99869940;8.49421771;2023-03-14T05:50:40;9.20;99.90